sensor_id;sensor_type;location;lat;lon;timestamp;temperature;humidity
38456;DHT22;24237;50.106;20.014;2023-09-19T00:01:42;21.30;99.90
38456;DHT22;24237;50.106;20.014;2023-09-19T00:04:11;21.30;99.90
38456;DHT22;24237;50.106;20.014;2023-09-19T00:06:38;21.20;99.90
38456;DHT22;24237;50.106;20.014;2023-09-19T00:09:04;21.30;99.90
38456;DHT22;24237;50.106;20.014;2023-09-19T00:11:30;21.20;99.90
38456;DHT22;24237;50.106;20.014;2023-09-19T00:13:56;21.20;99.90
38456;DHT22;24237;50.106;20.014;2023-09-19T00:16:25;21.30;99.90
38456;DHT22;24237;50.106;20.014;2023-09-19T00:18:51;21.30;99.90
38456;DHT22;24237;50.106;20.014;2023-09-19T00:21:18;21.30;99.90
38456;DHT22;24237;50.106;20.014;2023-09-19T00:23:44;21.20;99.90
38456;DHT22;24237;50.106;20.014;2023-09-19T00:26:10;21.20;99.90
38456;DHT22;24237;50.106;20.014;2023-09-19T00:28:36;21.30;99.90
38456;DHT22;24237;50.106;20.014;2023-09-19T00:31:01;21.30;99.90
38456;DHT22;24237;50.106;20.014;2023-09-19T00:33:28;21.50;99.90
38456;DHT22;24237;50.106;20.014;2023-09-19T00:35:56;21.50;99.90
38456;DHT22;24237;50.106;20.014;2023-09-19T00:38:25;21.40;99.90
38456;DHT22;24237;50.106;20.014;2023-09-19T00:40:53;21.50;99.90
38456;DHT22;24237;50.106;20.014;2023-09-19T00:43:20;21.50;99.90
38456;DHT22;24237;50.106;20.014;2023-09-19T00:45:49;21.50;99.90
38456;DHT22;24237;50.106;20.014;2023-09-19T00:48:16;21.50;99.90
38456;DHT22;24237;50.106;20.014;2023-09-19T00:50:46;21.50;99.90
38456;DHT22;24237;50.106;20.014;2023-09-19T00:53:15;21.70;99.90
38456;DHT22;24237;50.106;20.014;2023-09-19T00:55:44;21.60;99.90
38456;DHT22;24237;50.106;20.014;2023-09-19T00:58:11;21.50;99.90
38456;DHT22;24237;50.106;20.014;2023-09-19T01:00:37;21.60;99.90
38456;DHT22;24237;50.106;20.014;2023-09-19T01:03:03;21.50;99.90
38456;DHT22;24237;50.106;20.014;2023-09-19T01:05:29;21.60;99.90
38456;DHT22;24237;50.106;20.014;2023-09-19T01:07:57;21.50;99.90
38456;DHT22;24237;50.106;20.014;2023-09-19T01:10:24;21.30;99.90
38456;DHT22;24237;50.106;20.014;2023-09-19T01:26:43;21.50;16.20
38456;DHT22;24237;50.106;20.014;2023-09-19T01:29:45;21.40;1.00
38456;DHT22;24237;50.106;20.014;2023-09-19T01:32:17;21.50;42.70
38456;DHT22;24237;50.106;20.014;2023-09-19T01:34:48;21.20;99.90
38456;DHT22;24237;50.106;20.014;2023-09-19T01:37:16;21.10;99.90
38456;DHT22;24237;50.106;20.014;2023-09-19T01:40:03;21.00;99.90
38456;DHT22;24237;50.106;20.014;2023-09-19T01:48:42;20.30;99.90
38456;DHT22;24237;50.106;20.014;2023-09-19T01:51:15;20.30;99.90
38456;DHT22;24237;50.106;20.014;2023-09-19T01:54:02;20.40;99.90
38456;DHT22;24237;50.106;20.014;2023-09-19T01:59:25;20.50;1.00
38456;DHT22;24237;50.106;20.014;2023-09-19T02:01:53;20.70;99.90
38456;DHT22;24237;50.106;20.014;2023-09-19T02:04:19;20.60;99.90
38456;DHT22;24237;50.106;20.014;2023-09-19T02:06:45;20.60;1.00
38456;DHT22;24237;50.106;20.014;2023-09-19T02:09:14;20.50;1.00
38456;DHT22;24237;50.106;20.014;2023-09-19T02:11:42;20.50;1.00
38456;DHT22;24237;50.106;20.014;2023-09-19T02:14:08;20.50;1.00
38456;DHT22;24237;50.106;20.014;2023-09-19T02:16:34;20.60;1.00
38456;DHT22;24237;50.106;20.014;2023-09-19T02:19:00;20.70;1.00
38456;DHT22;24237;50.106;20.014;2023-09-19T02:21:30;20.70;1.00
38456;DHT22;24237;50.106;20.014;2023-09-19T02:23:56;20.70;1.00
38456;DHT22;24237;50.106;20.014;2023-09-19T02:26:22;20.80;1.00
38456;DHT22;24237;50.106;20.014;2023-09-19T02:28:58;20.60;1.00
38456;DHT22;24237;50.106;20.014;2023-09-19T02:31:24;20.50;1.00
38456;DHT22;24237;50.106;20.014;2023-09-19T02:33:50;20.50;1.00
38456;DHT22;24237;50.106;20.014;2023-09-19T02:36:16;20.60;1.00
38456;DHT22;24237;50.106;20.014;2023-09-19T02:38:42;20.70;1.00
38456;DHT22;24237;50.106;20.014;2023-09-19T02:41:08;20.90;1.00
38456;DHT22;24237;50.106;20.014;2023-09-19T02:43:33;20.80;1.00
38456;DHT22;24237;50.106;20.014;2023-09-19T02:45:59;20.80;1.00
38456;DHT22;24237;50.106;20.014;2023-09-19T02:48:25;20.80;1.00
38456;DHT22;24237;50.106;20.014;2023-09-19T02:50:51;20.80;1.00
38456;DHT22;24237;50.106;20.014;2023-09-19T02:53:17;20.70;1.00
38456;DHT22;24237;50.106;20.014;2023-09-19T02:55:42;20.70;1.00
38456;DHT22;24237;50.106;20.014;2023-09-19T02:58:08;20.70;1.00
38456;DHT22;24237;50.106;20.014;2023-09-19T03:00:37;20.70;1.00
38456;DHT22;24237;50.106;20.014;2023-09-19T03:03:02;20.70;1.00
38456;DHT22;24237;50.106;20.014;2023-09-19T03:05:28;20.60;1.00
38456;DHT22;24237;50.106;20.014;2023-09-19T03:07:57;20.60;1.00
38456;DHT22;24237;50.106;20.014;2023-09-19T03:10:26;20.60;1.00
38456;DHT22;24237;50.106;20.014;2023-09-19T03:12:52;20.50;1.00
38456;DHT22;24237;50.106;20.014;2023-09-19T03:15:17;20.50;1.00
38456;DHT22;24237;50.106;20.014;2023-09-19T03:17:47;20.40;1.00
38456;DHT22;24237;50.106;20.014;2023-09-19T03:20:13;20.50;1.00
38456;DHT22;24237;50.106;20.014;2023-09-19T03:22:43;20.50;1.00
38456;DHT22;24237;50.106;20.014;2023-09-19T03:25:08;20.60;1.00
38456;DHT22;24237;50.106;20.014;2023-09-19T03:27:35;20.60;1.00
38456;DHT22;24237;50.106;20.014;2023-09-19T03:30:01;20.50;1.00
38456;DHT22;24237;50.106;20.014;2023-09-19T03:32:30;20.50;1.00
38456;DHT22;24237;50.106;20.014;2023-09-19T03:34:56;20.50;1.00
38456;DHT22;24237;50.106;20.014;2023-09-19T03:37:22;20.60;1.00
38456;DHT22;24237;50.106;20.014;2023-09-19T03:39:47;20.40;4.70
38456;DHT22;24237;50.106;20.014;2023-09-19T03:42:13;20.80;1.00
38456;DHT22;24237;50.106;20.014;2023-09-19T03:44:44;20.60;1.00
38456;DHT22;24237;50.106;20.014;2023-09-19T03:47:10;20.60;1.00
38456;DHT22;24237;50.106;20.014;2023-09-19T03:49:35;20.60;1.00
38456;DHT22;24237;50.106;20.014;2023-09-19T03:52:02;20.70;1.00
38456;DHT22;24237;50.106;20.014;2023-09-19T03:54:28;20.50;1.00
38456;DHT22;24237;50.106;20.014;2023-09-19T03:56:53;20.60;1.00
38456;DHT22;24237;50.106;20.014;2023-09-19T03:59:19;20.70;1.00
38456;DHT22;24237;50.106;20.014;2023-09-19T04:01:44;20.60;1.00
38456;DHT22;24237;50.106;20.014;2023-09-19T04:04:10;20.50;1.00
38456;DHT22;24237;50.106;20.014;2023-09-19T04:06:37;20.70;1.00
38456;DHT22;24237;50.106;20.014;2023-09-19T04:09:03;20.80;1.00
38456;DHT22;24237;50.106;20.014;2023-09-19T04:11:30;20.60;1.00
38456;DHT22;24237;50.106;20.014;2023-09-19T04:13:56;20.70;1.00
38456;DHT22;24237;50.106;20.014;2023-09-19T04:16:22;20.80;1.00
38456;DHT22;24237;50.106;20.014;2023-09-19T04:18:48;20.70;1.00
38456;DHT22;24237;50.106;20.014;2023-09-19T04:21:13;20.50;1.00
38456;DHT22;24237;50.106;20.014;2023-09-19T04:23:39;20.60;1.00
38456;DHT22;24237;50.106;20.014;2023-09-19T04:26:05;20.80;1.00
38456;DHT22;24237;50.106;20.014;2023-09-19T04:28:31;20.90;1.00
38456;DHT22;24237;50.106;20.014;2023-09-19T04:30:58;20.70;1.00
38456;DHT22;24237;50.106;20.014;2023-09-19T04:33:25;20.60;1.00
38456;DHT22;24237;50.106;20.014;2023-09-19T04:35:52;20.60;1.00
38456;DHT22;24237;50.106;20.014;2023-09-19T04:38:18;20.70;1.00
38456;DHT22;24237;50.106;20.014;2023-09-19T04:40:45;20.80;1.00
38456;DHT22;24237;50.106;20.014;2023-09-19T04:43:11;21.00;1.00
38456;DHT22;24237;50.106;20.014;2023-09-19T04:45:38;20.90;1.00
38456;DHT22;24237;50.106;20.014;2023-09-19T04:48:05;20.90;1.00
38456;DHT22;24237;50.106;20.014;2023-09-19T04:50:32;20.90;1.00
38456;DHT22;24237;50.106;20.014;2023-09-19T04:52:59;21.10;1.00
38456;DHT22;24237;50.106;20.014;2023-09-19T04:55:25;21.00;1.00
38456;DHT22;24237;50.106;20.014;2023-09-19T04:57:51;20.90;1.00
38456;DHT22;24237;50.106;20.014;2023-09-19T05:00:21;20.80;1.00
38456;DHT22;24237;50.106;20.014;2023-09-19T05:02:51;20.50;1.00
38456;DHT22;24237;50.106;20.014;2023-09-19T05:05:17;20.30;5.50
38456;DHT22;24237;50.106;20.014;2023-09-19T05:07:44;20.40;6.40
38456;DHT22;24237;50.106;20.014;2023-09-19T05:10:10;20.30;12.80
38456;DHT22;24237;50.106;20.014;2023-09-19T05:12:37;20.20;15.60
38456;DHT22;24237;50.106;20.014;2023-09-19T05:15:07;20.40;18.60
38456;DHT22;24237;50.106;20.014;2023-09-19T05:17:33;20.50;1.00
38456;DHT22;24237;50.106;20.014;2023-09-19T05:19:59;20.80;1.00
38456;DHT22;24237;50.106;20.014;2023-09-19T05:22:29;20.70;1.00
38456;DHT22;24237;50.106;20.014;2023-09-19T05:24:54;20.70;1.00
38456;DHT22;24237;50.106;20.014;2023-09-19T05:27:20;21.00;1.00
38456;DHT22;24237;50.106;20.014;2023-09-19T05:29:47;21.00;1.00
38456;DHT22;24237;50.106;20.014;2023-09-19T05:32:14;20.90;1.00
38456;DHT22;24237;50.106;20.014;2023-09-19T05:34:40;21.00;1.00
38456;DHT22;24237;50.106;20.014;2023-09-19T05:37:06;21.20;1.00
38456;DHT22;24237;50.106;20.014;2023-09-19T05:39:33;21.30;1.00
38456;DHT22;24237;50.106;20.014;2023-09-19T05:41:59;21.30;1.00
38456;DHT22;24237;50.106;20.014;2023-09-19T05:44:26;21.30;1.00
38456;DHT22;24237;50.106;20.014;2023-09-19T05:46:51;21.10;1.00
38456;DHT22;24237;50.106;20.014;2023-09-19T05:49:17;21.10;1.00
38456;DHT22;24237;50.106;20.014;2023-09-19T05:51:43;20.90;1.00
38456;DHT22;24237;50.106;20.014;2023-09-19T05:54:09;21.10;1.00
38456;DHT22;24237;50.106;20.014;2023-09-19T05:56:36;21.00;1.00
38456;DHT22;24237;50.106;20.014;2023-09-19T05:59:02;21.00;1.00
38456;DHT22;24237;50.106;20.014;2023-09-19T06:01:29;20.90;1.00
38456;DHT22;24237;50.106;20.014;2023-09-19T06:03:56;20.80;1.00
38456;DHT22;24237;50.106;20.014;2023-09-19T06:06:21;20.80;1.00
38456;DHT22;24237;50.106;20.014;2023-09-19T06:08:47;20.90;1.00
38456;DHT22;24237;50.106;20.014;2023-09-19T06:11:15;20.90;1.00
38456;DHT22;24237;50.106;20.014;2023-09-19T06:13:41;20.80;6.70
38456;DHT22;24237;50.106;20.014;2023-09-19T06:16:07;20.60;25.80
38456;DHT22;24237;50.106;20.014;2023-09-19T06:18:32;20.60;40.00
38456;DHT22;24237;50.106;20.014;2023-09-19T06:20:59;20.60;55.20
38456;DHT22;24237;50.106;20.014;2023-09-19T06:23:25;20.50;57.60
38456;DHT22;24237;50.106;20.014;2023-09-19T06:25:52;20.50;66.20
38456;DHT22;24237;50.106;20.014;2023-09-19T06:28:18;20.60;55.00
38456;DHT22;24237;50.106;20.014;2023-09-19T06:30:49;20.60;55.50
38456;DHT22;24237;50.106;20.014;2023-09-19T06:33:14;20.60;53.60
38456;DHT22;24237;50.106;20.014;2023-09-19T06:35:42;20.40;73.30
38456;DHT22;24237;50.106;20.014;2023-09-19T06:38:12;20.60;72.80
38456;DHT22;24237;50.106;20.014;2023-09-19T06:40:38;20.60;67.40
38456;DHT22;24237;50.106;20.014;2023-09-19T06:43:05;20.40;81.30
38456;DHT22;24237;50.106;20.014;2023-09-19T06:45:30;20.80;78.20
38456;DHT22;24237;50.106;20.014;2023-09-19T06:47:57;20.70;73.70
38456;DHT22;24237;50.106;20.014;2023-09-19T06:50:23;20.70;67.30
38456;DHT22;24237;50.106;20.014;2023-09-19T06:52:53;20.60;70.20
38456;DHT22;24237;50.106;20.014;2023-09-19T06:55:21;20.70;87.70
38456;DHT22;24237;50.106;20.014;2023-09-19T06:57:49;20.70;71.60
38456;DHT22;24237;50.106;20.014;2023-09-19T07:00:16;20.70;83.40
38456;DHT22;24237;50.106;20.014;2023-09-19T07:02:53;20.70;70.30
38456;DHT22;24237;50.106;20.014;2023-09-19T07:05:19;20.50;70.40
38456;DHT22;24237;50.106;20.014;2023-09-19T07:07:45;20.40;81.20
38456;DHT22;24237;50.106;20.014;2023-09-19T07:10:11;20.60;86.10
38456;DHT22;24237;50.106;20.014;2023-09-19T07:12:38;20.70;73.00
38456;DHT22;24237;50.106;20.014;2023-09-19T07:15:04;20.60;66.40
38456;DHT22;24237;50.106;20.014;2023-09-19T07:17:31;20.70;63.70
38456;DHT22;24237;50.106;20.014;2023-09-19T07:19:58;20.70;64.30
38456;DHT22;24237;50.106;20.014;2023-09-19T07:22:24;20.70;56.60
38456;DHT22;24237;50.106;20.014;2023-09-19T07:24:51;20.60;66.20
38456;DHT22;24237;50.106;20.014;2023-09-19T07:27:17;20.70;48.10
38456;DHT22;24237;50.106;20.014;2023-09-19T07:29:43;20.70;47.50
38456;DHT22;24237;50.106;20.014;2023-09-19T07:32:08;20.70;59.00
38456;DHT22;24237;50.106;20.014;2023-09-19T07:34:35;20.60;57.40
38456;DHT22;24237;50.106;20.014;2023-09-19T07:37:01;20.60;61.10
38456;DHT22;24237;50.106;20.014;2023-09-19T07:39:28;20.70;68.80
38456;DHT22;24237;50.106;20.014;2023-09-19T07:41:53;20.80;55.80
38456;DHT22;24237;50.106;20.014;2023-09-19T07:44:19;20.80;49.70
38456;DHT22;24237;50.106;20.014;2023-09-19T07:46:45;20.80;50.80
38456;DHT22;24237;50.106;20.014;2023-09-19T07:49:11;20.80;54.20
38456;DHT22;24237;50.106;20.014;2023-09-19T07:51:36;20.70;67.10
38456;DHT22;24237;50.106;20.014;2023-09-19T07:54:02;20.80;42.80
38456;DHT22;24237;50.106;20.014;2023-09-19T07:56:28;20.60;52.50
38456;DHT22;24237;50.106;20.014;2023-09-19T07:58:53;20.70;58.30
38456;DHT22;24237;50.106;20.014;2023-09-19T08:01:19;20.60;57.00
38456;DHT22;24237;50.106;20.014;2023-09-19T08:03:45;20.40;78.30
38456;DHT22;24237;50.106;20.014;2023-09-19T08:06:10;20.40;76.50
38456;DHT22;24237;50.106;20.014;2023-09-19T08:08:36;20.40;88.30
38456;DHT22;24237;50.106;20.014;2023-09-19T08:11:03;20.30;93.10
38456;DHT22;24237;50.106;20.014;2023-09-19T08:13:37;20.30;95.30
38456;DHT22;24237;50.106;20.014;2023-09-19T08:16:06;20.30;92.50
38456;DHT22;24237;50.106;20.014;2023-09-19T08:18:32;20.30;99.50
38456;DHT22;24237;50.106;20.014;2023-09-19T08:20:58;20.20;99.90
38456;DHT22;24237;50.106;20.014;2023-09-19T08:23:26;20.10;99.90
38456;DHT22;24237;50.106;20.014;2023-09-19T08:25:56;19.90;99.90
38456;DHT22;24237;50.106;20.014;2023-09-19T08:28:22;19.70;99.90
38456;DHT22;24237;50.106;20.014;2023-09-19T08:30:50;19.70;99.90
38456;DHT22;24237;50.106;20.014;2023-09-19T08:33:16;19.80;99.90
38456;DHT22;24237;50.106;20.014;2023-09-19T08:35:42;19.70;99.90
38456;DHT22;24237;50.106;20.014;2023-09-19T08:38:09;19.60;99.90
38456;DHT22;24237;50.106;20.014;2023-09-19T08:40:39;19.60;99.90
38456;DHT22;24237;50.106;20.014;2023-09-19T08:43:07;19.50;99.90
38456;DHT22;24237;50.106;20.014;2023-09-19T08:45:33;19.30;99.90
38456;DHT22;24237;50.106;20.014;2023-09-19T08:50:47;19.10;99.90
38456;DHT22;24237;50.106;20.014;2023-09-19T08:53:26;19.20;99.90
38456;DHT22;24237;50.106;20.014;2023-09-19T08:55:53;19.30;99.90
38456;DHT22;24237;50.106;20.014;2023-09-19T08:58:21;19.40;99.90
38456;DHT22;24237;50.106;20.014;2023-09-19T09:00:53;19.40;99.90
38456;DHT22;24237;50.106;20.014;2023-09-19T09:03:20;19.50;99.90
38456;DHT22;24237;50.106;20.014;2023-09-19T09:05:47;19.50;99.90
38456;DHT22;24237;50.106;20.014;2023-09-19T09:08:13;19.70;99.90
38456;DHT22;24237;50.106;20.014;2023-09-19T09:10:39;19.80;99.90
38456;DHT22;24237;50.106;20.014;2023-09-19T09:13:06;19.80;99.90
38456;DHT22;24237;50.106;20.014;2023-09-19T09:15:36;19.90;99.90
38456;DHT22;24237;50.106;20.014;2023-09-19T09:18:02;19.80;99.90
38456;DHT22;24237;50.106;20.014;2023-09-19T09:20:28;19.70;99.90
38456;DHT22;24237;50.106;20.014;2023-09-19T09:22:56;19.60;99.90
38456;DHT22;24237;50.106;20.014;2023-09-19T09:25:52;19.70;99.90
38456;DHT22;24237;50.106;20.014;2023-09-19T09:28:26;19.70;99.90
38456;DHT22;24237;50.106;20.014;2023-09-19T09:30:54;19.70;99.90
38456;DHT22;24237;50.106;20.014;2023-09-19T09:33:20;19.70;99.90
38456;DHT22;24237;50.106;20.014;2023-09-19T09:35:56;19.60;99.90
38456;DHT22;24237;50.106;20.014;2023-09-19T09:38:47;19.50;99.90
38456;DHT22;24237;50.106;20.014;2023-09-19T09:41:36;19.60;99.90
38456;DHT22;24237;50.106;20.014;2023-09-19T09:44:13;19.70;99.90
38456;DHT22;24237;50.106;20.014;2023-09-19T09:46:43;19.70;99.90
38456;DHT22;24237;50.106;20.014;2023-09-19T09:49:28;19.80;99.90
38456;DHT22;24237;50.106;20.014;2023-09-19T09:52:07;19.90;99.90
38456;DHT22;24237;50.106;20.014;2023-09-19T09:54:35;19.90;99.90
38456;DHT22;24237;50.106;20.014;2023-09-19T09:57:08;20.10;99.90
38456;DHT22;24237;50.106;20.014;2023-09-19T10:00:00;19.90;99.90
38456;DHT22;24237;50.106;20.014;2023-09-19T10:02:38;20.00;99.90
38456;DHT22;24237;50.106;20.014;2023-09-19T10:05:20;20.10;99.90
38456;DHT22;24237;50.106;20.014;2023-09-19T10:07:46;20.00;99.90
38456;DHT22;24237;50.106;20.014;2023-09-19T10:10:32;20.00;99.90
38456;DHT22;24237;50.106;20.014;2023-09-19T10:13:08;19.90;99.90
38456;DHT22;24237;50.106;20.014;2023-09-19T10:15:37;20.10;99.90
38456;DHT22;24237;50.106;20.014;2023-09-19T10:18:07;20.10;99.90
38456;DHT22;24237;50.106;20.014;2023-09-19T10:20:36;19.90;99.90
38456;DHT22;24237;50.106;20.014;2023-09-19T10:23:10;20.00;99.90
38456;DHT22;24237;50.106;20.014;2023-09-19T10:25:44;20.10;99.90
38456;DHT22;24237;50.106;20.014;2023-09-19T10:28:13;20.20;99.90
38456;DHT22;24237;50.106;20.014;2023-09-19T10:30:53;20.20;99.90
38456;DHT22;24237;50.106;20.014;2023-09-19T10:33:35;20.20;99.90
38456;DHT22;24237;50.106;20.014;2023-09-19T10:36:05;20.00;99.90
38456;DHT22;24237;50.106;20.014;2023-09-19T10:38:31;19.90;99.90
38456;DHT22;24237;50.106;20.014;2023-09-19T10:40:59;19.90;99.90
38456;DHT22;24237;50.106;20.014;2023-09-19T10:43:30;20.00;99.90
38456;DHT22;24237;50.106;20.014;2023-09-19T10:46:00;19.90;99.90
38456;DHT22;24237;50.106;20.014;2023-09-19T10:48:26;20.00;99.90
38456;DHT22;24237;50.106;20.014;2023-09-19T10:50:53;20.20;99.50
38456;DHT22;24237;50.106;20.014;2023-09-19T10:53:25;20.10;98.00
38456;DHT22;24237;50.106;20.014;2023-09-19T10:55:57;20.10;97.00
38456;DHT22;24237;50.106;20.014;2023-09-19T10:58:29;20.10;99.90
38456;DHT22;24237;50.106;20.014;2023-09-19T11:00:59;20.30;97.50
38456;DHT22;24237;50.106;20.014;2023-09-19T11:03:43;20.30;91.80
38456;DHT22;24237;50.106;20.014;2023-09-19T11:06:17;20.50;91.00
38456;DHT22;24237;50.106;20.014;2023-09-19T11:30:32;20.30;84.30
38456;DHT22;24237;50.106;20.014;2023-09-19T11:33:17;20.20;98.50
38456;DHT22;24237;50.106;20.014;2023-09-19T11:36:13;20.30;90.80
38456;DHT22;24237;50.106;20.014;2023-09-19T11:43:51;20.20;95.30
38456;DHT22;24237;50.106;20.014;2023-09-19T11:46:18;20.20;98.40
38456;DHT22;24237;50.106;20.014;2023-09-19T11:48:51;20.20;99.50
38456;DHT22;24237;50.106;20.014;2023-09-19T11:51:24;20.10;99.90
38456;DHT22;24237;50.106;20.014;2023-09-19T11:53:57;20.10;99.90
38456;DHT22;24237;50.106;20.014;2023-09-19T11:56:26;20.00;99.90
38456;DHT22;24237;50.106;20.014;2023-09-19T11:58:55;20.00;99.90
38456;DHT22;24237;50.106;20.014;2023-09-19T12:01:31;20.10;97.10
38456;DHT22;24237;50.106;20.014;2023-09-19T12:04:00;20.10;95.70
38456;DHT22;24237;50.106;20.014;2023-09-19T12:06:28;20.10;99.90
38456;DHT22;24237;50.106;20.014;2023-09-19T12:08:55;20.00;99.90
38456;DHT22;24237;50.106;20.014;2023-09-19T12:11:27;20.10;94.90
38456;DHT22;24237;50.106;20.014;2023-09-19T12:13:54;20.00;95.30
38456;DHT22;24237;50.106;20.014;2023-09-19T12:16:24;19.90;99.90
38456;DHT22;24237;50.106;20.014;2023-09-19T12:18:50;19.80;99.90
38456;DHT22;24237;50.106;20.014;2023-09-19T12:21:30;19.90;99.90
38456;DHT22;24237;50.106;20.014;2023-09-19T12:24:12;19.70;99.90
38456;DHT22;24237;50.106;20.014;2023-09-19T12:26:46;19.90;99.90
38456;DHT22;24237;50.106;20.014;2023-09-19T12:29:19;20.00;99.90
38456;DHT22;24237;50.106;20.014;2023-09-19T12:31:54;20.00;99.90
38456;DHT22;24237;50.106;20.014;2023-09-19T12:34:27;19.90;99.90
38456;DHT22;24237;50.106;20.014;2023-09-19T12:37:12;20.00;99.90
38456;DHT22;24237;50.106;20.014;2023-09-19T12:39:43;20.00;99.90
38456;DHT22;24237;50.106;20.014;2023-09-19T12:42:10;20.00;99.90
38456;DHT22;24237;50.106;20.014;2023-09-19T12:44:41;20.00;99.90
38456;DHT22;24237;50.106;20.014;2023-09-19T12:47:13;20.00;99.90
38456;DHT22;24237;50.106;20.014;2023-09-19T12:50:09;20.20;99.90
38456;DHT22;24237;50.106;20.014;2023-09-19T12:52:40;20.20;99.90
38456;DHT22;24237;50.106;20.014;2023-09-19T12:55:06;20.20;99.90
38456;DHT22;24237;50.106;20.014;2023-09-19T12:57:36;20.10;99.90
38456;DHT22;24237;50.106;20.014;2023-09-19T13:00:05;20.00;99.90
38456;DHT22;24237;50.106;20.014;2023-09-19T13:02:31;20.10;99.90
38456;DHT22;24237;50.106;20.014;2023-09-19T13:04:58;20.20;99.90
38456;DHT22;24237;50.106;20.014;2023-09-19T13:07:42;20.10;99.90
38456;DHT22;24237;50.106;20.014;2023-09-19T13:10:12;20.30;99.90
38456;DHT22;24237;50.106;20.014;2023-09-19T13:12:42;20.20;99.90
38456;DHT22;24237;50.106;20.014;2023-09-19T13:15:13;20.00;99.90
38456;DHT22;24237;50.106;20.014;2023-09-19T13:17:49;19.90;99.90
38456;DHT22;24237;50.106;20.014;2023-09-19T13:20:22;20.00;99.90
38456;DHT22;24237;50.106;20.014;2023-09-19T13:22:54;20.10;99.90
38456;DHT22;24237;50.106;20.014;2023-09-19T13:25:23;20.30;99.90
38456;DHT22;24237;50.106;20.014;2023-09-19T13:27:54;20.30;99.90
38456;DHT22;24237;50.106;20.014;2023-09-19T13:30:22;20.30;99.90
38456;DHT22;24237;50.106;20.014;2023-09-19T13:32:48;20.20;99.90
38456;DHT22;24237;50.106;20.014;2023-09-19T13:35:14;20.40;98.20
38456;DHT22;24237;50.106;20.014;2023-09-19T13:37:40;20.50;89.70
38456;DHT22;24237;50.106;20.014;2023-09-19T13:40:14;20.50;89.60
38456;DHT22;24237;50.106;20.014;2023-09-19T13:42:41;20.50;71.00
38456;DHT22;24237;50.106;20.014;2023-09-19T13:45:07;20.50;80.10
38456;DHT22;24237;50.106;20.014;2023-09-19T13:47:34;20.50;76.70
38456;DHT22;24237;50.106;20.014;2023-09-19T13:50:03;20.70;51.40
38456;DHT22;24237;50.106;20.014;2023-09-19T13:52:30;20.80;23.00
38456;DHT22;24237;50.106;20.014;2023-09-19T13:54:56;20.80;21.70
38456;DHT22;24237;50.106;20.014;2023-09-19T13:57:23;20.80;3.30
38456;DHT22;24237;50.106;20.014;2023-09-19T13:59:49;20.70;10.80
38456;DHT22;24237;50.106;20.014;2023-09-19T14:02:14;20.60;16.70
38456;DHT22;24237;50.106;20.014;2023-09-19T14:04:43;20.60;15.00
38456;DHT22;24237;50.106;20.014;2023-09-19T14:07:09;20.70;3.40
38456;DHT22;24237;50.106;20.014;2023-09-19T14:09:36;20.80;1.00
38456;DHT22;24237;50.106;20.014;2023-09-19T14:12:02;20.90;1.00
38456;DHT22;24237;50.106;20.014;2023-09-19T14:14:28;21.00;1.00
38456;DHT22;24237;50.106;20.014;2023-09-19T14:16:53;20.90;1.00
38456;DHT22;24237;50.106;20.014;2023-09-19T14:19:20;21.00;1.00
38456;DHT22;24237;50.106;20.014;2023-09-19T14:21:46;21.00;1.00
38456;DHT22;24237;50.106;20.014;2023-09-19T14:24:17;21.20;1.00
38456;DHT22;24237;50.106;20.014;2023-09-19T14:26:43;21.30;1.00
38456;DHT22;24237;50.106;20.014;2023-09-19T14:29:08;21.30;1.00
38456;DHT22;24237;50.106;20.014;2023-09-19T14:31:37;21.50;1.00
38456;DHT22;24237;50.106;20.014;2023-09-19T14:34:03;22.70;99.90
38456;DHT22;24237;50.106;20.014;2023-09-19T14:36:30;23.60;99.90
38456;DHT22;24237;50.106;20.014;2023-09-19T14:38:56;23.90;99.90
38456;DHT22;24237;50.106;20.014;2023-09-19T14:41:25;24.20;15.10
38456;DHT22;24237;50.106;20.014;2023-09-19T14:43:54;24.00;99.90
38456;DHT22;24237;50.106;20.014;2023-09-19T14:46:23;23.70;99.90
38456;DHT22;24237;50.106;20.014;2023-09-19T14:48:51;23.50;1.00
38456;DHT22;24237;50.106;20.014;2023-09-19T14:51:17;23.00;99.90
38456;DHT22;24237;50.106;20.014;2023-09-19T14:53:44;22.70;1.00
38456;DHT22;24237;50.106;20.014;2023-09-19T14:56:11;22.60;1.00
38456;DHT22;24237;50.106;20.014;2023-09-19T14:58:37;22.40;1.00
38456;DHT22;24237;50.106;20.014;2023-09-19T15:01:11;22.10;99.90
38456;DHT22;24237;50.106;20.014;2023-09-19T15:03:38;21.90;99.90
38456;DHT22;24237;50.106;20.014;2023-09-19T15:06:06;22.10;99.90
38456;DHT22;24237;50.106;20.014;2023-09-19T15:08:36;22.10;99.50
38456;DHT22;24237;50.106;20.014;2023-09-19T15:11:07;22.20;99.90
38456;DHT22;24237;50.106;20.014;2023-09-19T15:13:33;22.30;99.90
38456;DHT22;24237;50.106;20.014;2023-09-19T15:16:00;22.60;1.00
38456;DHT22;24237;50.106;20.014;2023-09-19T15:18:30;23.00;99.90
38456;DHT22;24237;50.106;20.014;2023-09-19T15:21:11;23.00;69.90
38456;DHT22;24237;50.106;20.014;2023-09-19T15:23:38;22.80;99.90
38456;DHT22;24237;50.106;20.014;2023-09-19T15:26:05;22.60;1.00
38456;DHT22;24237;50.106;20.014;2023-09-19T15:28:32;22.50;1.00
38456;DHT22;24237;50.106;20.014;2023-09-19T15:31:11;22.40;1.00
38456;DHT22;24237;50.106;20.014;2023-09-19T15:33:38;22.50;1.00
38456;DHT22;24237;50.106;20.014;2023-09-19T15:36:04;22.90;99.90
38456;DHT22;24237;50.106;20.014;2023-09-19T15:38:30;23.10;99.90
38456;DHT22;24237;50.106;20.014;2023-09-19T15:40:57;23.10;88.00
38456;DHT22;24237;50.106;20.014;2023-09-19T15:43:23;22.90;34.90
38456;DHT22;24237;50.106;20.014;2023-09-19T15:45:49;23.00;1.00
38456;DHT22;24237;50.106;20.014;2023-09-19T15:48:15;22.80;66.50
38456;DHT22;24237;50.106;20.014;2023-09-19T15:50:41;22.80;79.40
38456;DHT22;24237;50.106;20.014;2023-09-19T15:53:08;22.60;99.90
38456;DHT22;24237;50.106;20.014;2023-09-19T15:55:41;22.50;99.90
38456;DHT22;24237;50.106;20.014;2023-09-19T15:58:07;22.40;99.90
38456;DHT22;24237;50.106;20.014;2023-09-19T16:00:33;22.40;1.00
38456;DHT22;24237;50.106;20.014;2023-09-19T16:03:02;22.30;1.00
38456;DHT22;24237;50.106;20.014;2023-09-19T16:05:34;22.00;57.50
38456;DHT22;24237;50.106;20.014;2023-09-19T16:08:03;22.00;36.70
38456;DHT22;24237;50.106;20.014;2023-09-19T16:10:29;22.20;1.00
38456;DHT22;24237;50.106;20.014;2023-09-19T16:12:55;22.00;90.00
38456;DHT22;24237;50.106;20.014;2023-09-19T16:15:20;22.00;83.40
38456;DHT22;24237;50.106;20.014;2023-09-19T16:17:46;21.90;99.90
38456;DHT22;24237;50.106;20.014;2023-09-19T16:20:12;21.80;99.90
38456;DHT22;24237;50.106;20.014;2023-09-19T16:22:40;21.70;99.90